sensor_id;sensor_type;location;lat;lon;timestamp;temperature;humidity
792;DHT22;379;49.022;12.148;2023-04-03T00:02:21;2.70;90.30
792;DHT22;379;49.022;12.148;2023-04-03T00:04:47;2.70;90.30
792;DHT22;379;49.022;12.148;2023-04-03T00:07:14;2.70;90.40
792;DHT22;379;49.022;12.148;2023-04-03T00:09:41;2.70;90.50
792;DHT22;379;49.022;12.148;2023-04-03T00:12:09;2.70;90.60
792;DHT22;379;49.022;12.148;2023-04-03T00:14:36;2.70;90.60
792;DHT22;379;49.022;12.148;2023-04-03T00:17:03;2.70;90.60
792;DHT22;379;49.022;12.148;2023-04-03T00:19:29;2.70;90.60
792;DHT22;379;49.022;12.148;2023-04-03T00:21:56;2.70;90.60
792;DHT22;379;49.022;12.148;2023-04-03T00:24:23;2.70;90.80
792;DHT22;379;49.022;12.148;2023-04-03T00:26:50;2.60;90.70
792;DHT22;379;49.022;12.148;2023-04-03T00:29:18;2.60;90.70
792;DHT22;379;49.022;12.148;2023-04-03T00:31:45;2.60;90.80
792;DHT22;379;49.022;12.148;2023-04-03T00:34:11;2.60;90.80
792;DHT22;379;49.022;12.148;2023-04-03T00:36:38;2.70;90.60
792;DHT22;379;49.022;12.148;2023-04-03T00:39:05;2.70;90.60
792;DHT22;379;49.022;12.148;2023-04-03T00:41:32;2.60;90.70
792;DHT22;379;49.022;12.148;2023-04-03T00:43:58;2.60;90.80
792;DHT22;379;49.022;12.148;2023-04-03T00:46:26;2.70;90.90
792;DHT22;379;49.022;12.148;2023-04-03T00:48:53;2.70;90.80
792;DHT22;379;49.022;12.148;2023-04-03T00:51:22;2.60;90.80
792;DHT22;379;49.022;12.148;2023-04-03T00:53:53;2.60;90.80
792;DHT22;379;49.022;12.148;2023-04-03T00:56:23;2.60;91.00
792;DHT22;379;49.022;12.148;2023-04-03T00:58:54;2.60;91.00
792;DHT22;379;49.022;12.148;2023-04-03T01:01:24;2.60;91.00
792;DHT22;379;49.022;12.148;2023-04-03T01:03:53;2.60;90.90
792;DHT22;379;49.022;12.148;2023-04-03T01:06:23;2.60;90.90
792;DHT22;379;49.022;12.148;2023-04-03T01:08:52;2.60;91.00
792;DHT22;379;49.022;12.148;2023-04-03T01:11:19;2.60;90.90
792;DHT22;379;49.022;12.148;2023-04-03T01:13:46;2.60;91.00
792;DHT22;379;49.022;12.148;2023-04-03T01:16:14;2.60;91.00
792;DHT22;379;49.022;12.148;2023-04-03T01:18:42;2.50;91.00
792;DHT22;379;49.022;12.148;2023-04-03T01:21:34;2.50;91.20
792;DHT22;379;49.022;12.148;2023-04-03T01:24:22;2.50;91.20
792;DHT22;379;49.022;12.148;2023-04-03T01:26:51;2.50;91.30
792;DHT22;379;49.022;12.148;2023-04-03T01:29:18;2.40;91.30
792;DHT22;379;49.022;12.148;2023-04-03T01:31:49;2.50;91.50
792;DHT22;379;49.022;12.148;2023-04-03T01:34:16;2.40;91.40
792;DHT22;379;49.022;12.148;2023-04-03T01:36:42;2.40;91.50
792;DHT22;379;49.022;12.148;2023-04-03T01:39:09;2.40;91.70
792;DHT22;379;49.022;12.148;2023-04-03T01:41:36;2.40;91.90
792;DHT22;379;49.022;12.148;2023-04-03T01:44:03;2.40;91.80
792;DHT22;379;49.022;12.148;2023-04-03T01:46:30;2.40;91.90
792;DHT22;379;49.022;12.148;2023-04-03T01:48:58;2.40;91.80
792;DHT22;379;49.022;12.148;2023-04-03T01:51:25;2.40;91.90
792;DHT22;379;49.022;12.148;2023-04-03T01:53:52;2.40;92.00
792;DHT22;379;49.022;12.148;2023-04-03T01:56:18;2.40;92.00
792;DHT22;379;49.022;12.148;2023-04-03T01:58:45;2.40;92.00
792;DHT22;379;49.022;12.148;2023-04-03T02:01:12;2.40;92.00
792;DHT22;379;49.022;12.148;2023-04-03T02:03:38;2.50;92.10
792;DHT22;379;49.022;12.148;2023-04-03T02:06:07;2.40;92.10
792;DHT22;379;49.022;12.148;2023-04-03T02:08:33;2.40;92.30
792;DHT22;379;49.022;12.148;2023-04-03T02:11:00;2.40;92.40
792;DHT22;379;49.022;12.148;2023-04-03T02:13:27;2.40;92.30
792;DHT22;379;49.022;12.148;2023-04-03T02:15:54;2.40;92.40
792;DHT22;379;49.022;12.148;2023-04-03T02:18:20;2.40;92.40
792;DHT22;379;49.022;12.148;2023-04-03T02:20:47;2.40;92.40
792;DHT22;379;49.022;12.148;2023-04-03T02:23:15;2.40;92.30
792;DHT22;379;49.022;12.148;2023-04-03T02:25:42;2.40;92.40
792;DHT22;379;49.022;12.148;2023-04-03T02:28:09;2.40;92.50
792;DHT22;379;49.022;12.148;2023-04-03T02:30:35;2.40;92.50
792;DHT22;379;49.022;12.148;2023-04-03T02:33:02;2.40;92.60
792;DHT22;379;49.022;12.148;2023-04-03T02:35:29;2.40;92.70
792;DHT22;379;49.022;12.148;2023-04-03T02:37:55;2.40;92.80
792;DHT22;379;49.022;12.148;2023-04-03T02:40:23;2.40;92.80
792;DHT22;379;49.022;12.148;2023-04-03T02:42:50;2.40;92.90
792;DHT22;379;49.022;12.148;2023-04-03T02:45:17;2.30;93.00
792;DHT22;379;49.022;12.148;2023-04-03T02:47:44;2.30;93.10
792;DHT22;379;49.022;12.148;2023-04-03T02:50:10;2.30;93.20
792;DHT22;379;49.022;12.148;2023-04-03T02:52:37;2.30;93.40
792;DHT22;379;49.022;12.148;2023-04-03T02:55:04;2.30;93.40
792;DHT22;379;49.022;12.148;2023-04-03T02:57:33;2.30;93.50
792;DHT22;379;49.022;12.148;2023-04-03T03:00:00;2.30;93.40
792;DHT22;379;49.022;12.148;2023-04-03T03:02:27;2.30;93.50
792;DHT22;379;49.022;12.148;2023-04-03T03:04:54;2.20;93.60
792;DHT22;379;49.022;12.148;2023-04-03T03:07:21;2.20;93.70
792;DHT22;379;49.022;12.148;2023-04-03T03:09:47;2.20;93.70
792;DHT22;379;49.022;12.148;2023-04-03T03:12:14;2.20;93.70
792;DHT22;379;49.022;12.148;2023-04-03T03:14:42;2.20;93.70
792;DHT22;379;49.022;12.148;2023-04-03T03:17:09;2.20;93.60
792;DHT22;379;49.022;12.148;2023-04-03T03:19:35;2.20;93.60
792;DHT22;379;49.022;12.148;2023-04-03T03:22:02;2.20;93.70
792;DHT22;379;49.022;12.148;2023-04-03T03:24:29;2.20;93.70
792;DHT22;379;49.022;12.148;2023-04-03T03:26:55;2.20;93.90
792;DHT22;379;49.022;12.148;2023-04-03T03:29:22;2.20;94.00
792;DHT22;379;49.022;12.148;2023-04-03T03:31:51;2.20;94.10
792;DHT22;379;49.022;12.148;2023-04-03T03:34:18;2.20;94.00
792;DHT22;379;49.022;12.148;2023-04-03T03:36:45;2.20;94.00
792;DHT22;379;49.022;12.148;2023-04-03T03:39:12;2.20;93.80
792;DHT22;379;49.022;12.148;2023-04-03T03:41:39;2.20;93.80
792;DHT22;379;49.022;12.148;2023-04-03T03:44:05;2.30;93.90
792;DHT22;379;49.022;12.148;2023-04-03T03:46:32;2.30;93.90
792;DHT22;379;49.022;12.148;2023-04-03T03:49:00;2.30;93.90
792;DHT22;379;49.022;12.148;2023-04-03T03:51:27;2.20;93.90
792;DHT22;379;49.022;12.148;2023-04-03T03:53:54;2.20;94.00
792;DHT22;379;49.022;12.148;2023-04-03T03:56:20;2.20;94.00
792;DHT22;379;49.022;12.148;2023-04-03T03:58:47;2.20;94.20
792;DHT22;379;49.022;12.148;2023-04-03T04:01:14;2.20;94.20
792;DHT22;379;49.022;12.148;2023-04-03T04:03:42;2.20;94.10
792;DHT22;379;49.022;12.148;2023-04-03T04:06:10;2.20;94.10
792;DHT22;379;49.022;12.148;2023-04-03T04:08:36;2.20;94.10
792;DHT22;379;49.022;12.148;2023-04-03T04:11:03;2.20;94.10
792;DHT22;379;49.022;12.148;2023-04-03T04:13:30;2.20;94.20
792;DHT22;379;49.022;12.148;2023-04-03T04:15:57;2.10;94.20
792;DHT22;379;49.022;12.148;2023-04-03T04:18:23;2.20;94.10
792;DHT22;379;49.022;12.148;2023-04-03T04:20:50;2.20;94.10
792;DHT22;379;49.022;12.148;2023-04-03T04:23:18;2.10;93.90
792;DHT22;379;49.022;12.148;2023-04-03T04:25:46;2.20;94.00
792;DHT22;379;49.022;12.148;2023-04-03T04:28:13;2.20;93.80
792;DHT22;379;49.022;12.148;2023-04-03T04:30:39;2.20;93.80
792;DHT22;379;49.022;12.148;2023-04-03T04:33:06;2.20;93.80
792;DHT22;379;49.022;12.148;2023-04-03T04:35:33;2.20;93.90
792;DHT22;379;49.022;12.148;2023-04-03T04:38:00;2.20;93.90
792;DHT22;379;49.022;12.148;2023-04-03T04:40:28;2.20;93.80
792;DHT22;379;49.022;12.148;2023-04-03T04:42:55;2.20;93.70
792;DHT22;379;49.022;12.148;2023-04-03T04:45:22;2.20;93.70
792;DHT22;379;49.022;12.148;2023-04-03T04:47:48;2.20;93.70
792;DHT22;379;49.022;12.148;2023-04-03T04:50:17;2.20;93.80
792;DHT22;379;49.022;12.148;2023-04-03T04:52:43;2.20;93.80
792;DHT22;379;49.022;12.148;2023-04-03T04:55:10;2.20;93.90
792;DHT22;379;49.022;12.148;2023-04-03T04:57:38;2.20;93.80
792;DHT22;379;49.022;12.148;2023-04-03T05:00:06;2.20;93.90
792;DHT22;379;49.022;12.148;2023-04-03T05:02:33;2.20;93.90
792;DHT22;379;49.022;12.148;2023-04-03T05:04:59;2.20;94.00
792;DHT22;379;49.022;12.148;2023-04-03T05:07:26;2.20;93.90
792;DHT22;379;49.022;12.148;2023-04-03T05:09:53;2.20;93.90
792;DHT22;379;49.022;12.148;2023-04-03T05:12:20;2.20;93.90
792;DHT22;379;49.022;12.148;2023-04-03T05:14:48;2.20;94.00
792;DHT22;379;49.022;12.148;2023-04-03T05:17:15;2.20;94.30
792;DHT22;379;49.022;12.148;2023-04-03T05:19:42;2.20;94.00
792;DHT22;379;49.022;12.148;2023-04-03T05:22:08;2.20;94.00
792;DHT22;379;49.022;12.148;2023-04-03T05:24:35;2.20;94.00
792;DHT22;379;49.022;12.148;2023-04-03T05:27:02;2.20;94.00
792;DHT22;379;49.022;12.148;2023-04-03T05:29:29;2.30;93.90
792;DHT22;379;49.022;12.148;2023-04-03T05:31:57;2.30;93.60
792;DHT22;379;49.022;12.148;2023-04-03T05:34:24;2.30;93.60
792;DHT22;379;49.022;12.148;2023-04-03T05:36:50;2.40;93.50
792;DHT22;379;49.022;12.148;2023-04-03T05:39:17;2.40;93.40
792;DHT22;379;49.022;12.148;2023-04-03T05:41:44;2.40;93.60
792;DHT22;379;49.022;12.148;2023-04-03T05:44:10;2.40;93.40
792;DHT22;379;49.022;12.148;2023-04-03T05:46:37;2.40;93.30
792;DHT22;379;49.022;12.148;2023-04-03T05:49:05;2.50;93.40
792;DHT22;379;49.022;12.148;2023-04-03T05:51:34;2.50;93.30
792;DHT22;379;49.022;12.148;2023-04-03T05:54:06;2.50;93.00
792;DHT22;379;49.022;12.148;2023-04-03T05:56:35;2.60;93.10
792;DHT22;379;49.022;12.148;2023-04-03T05:59:02;2.60;93.20
792;DHT22;379;49.022;12.148;2023-04-03T06:01:29;2.60;93.20
792;DHT22;379;49.022;12.148;2023-04-03T06:03:56;2.60;93.10
792;DHT22;379;49.022;12.148;2023-04-03T06:06:25;2.70;93.10
792;DHT22;379;49.022;12.148;2023-04-03T06:08:52;2.70;92.80
792;DHT22;379;49.022;12.148;2023-04-03T06:11:18;2.80;92.70
792;DHT22;379;49.022;12.148;2023-04-03T06:13:46;2.90;92.80
792;DHT22;379;49.022;12.148;2023-04-03T06:16:15;2.90;92.80
792;DHT22;379;49.022;12.148;2023-04-03T06:18:43;3.00;92.50
792;DHT22;379;49.022;12.148;2023-04-03T06:21:10;3.00;92.30
792;DHT22;379;49.022;12.148;2023-04-03T06:23:38;3.10;92.20
792;DHT22;379;49.022;12.148;2023-04-03T06:26:06;3.10;92.00
792;DHT22;379;49.022;12.148;2023-04-03T06:28:32;3.20;92.00
792;DHT22;379;49.022;12.148;2023-04-03T06:30:59;3.30;91.80
792;DHT22;379;49.022;12.148;2023-04-03T06:33:26;3.30;91.60
792;DHT22;379;49.022;12.148;2023-04-03T06:35:56;3.30;91.50
792;DHT22;379;49.022;12.148;2023-04-03T06:38:23;3.40;91.60
792;DHT22;379;49.022;12.148;2023-04-03T06:40:51;3.40;91.20
792;DHT22;379;49.022;12.148;2023-04-03T06:43:18;3.50;91.10
792;DHT22;379;49.022;12.148;2023-04-03T06:45:46;3.50;91.00
792;DHT22;379;49.022;12.148;2023-04-03T06:48:13;3.50;90.70
792;DHT22;379;49.022;12.148;2023-04-03T06:50:39;3.50;90.40
792;DHT22;379;49.022;12.148;2023-04-03T06:53:07;3.60;90.50
792;DHT22;379;49.022;12.148;2023-04-03T06:55:33;3.70;90.30
792;DHT22;379;49.022;12.148;2023-04-03T06:58:02;3.70;89.20
792;DHT22;379;49.022;12.148;2023-04-03T07:00:29;3.70;89.20
792;DHT22;379;49.022;12.148;2023-04-03T07:02:56;3.80;89.10
792;DHT22;379;49.022;12.148;2023-04-03T07:05:23;3.80;87.90
792;DHT22;379;49.022;12.148;2023-04-03T07:07:50;3.80;87.50
792;DHT22;379;49.022;12.148;2023-04-03T07:10:17;3.80;88.20
792;DHT22;379;49.022;12.148;2023-04-03T07:12:44;3.80;87.90
792;DHT22;379;49.022;12.148;2023-04-03T07:15:13;3.80;87.20
792;DHT22;379;49.022;12.148;2023-04-03T07:17:40;3.90;86.40
792;DHT22;379;49.022;12.148;2023-04-03T07:20:08;3.80;85.10
792;DHT22;379;49.022;12.148;2023-04-03T07:22:36;3.80;84.70
792;DHT22;379;49.022;12.148;2023-04-03T07:25:03;3.80;84.00
792;DHT22;379;49.022;12.148;2023-04-03T07:27:32;3.90;83.80
792;DHT22;379;49.022;12.148;2023-04-03T07:29:59;3.90;83.70
792;DHT22;379;49.022;12.148;2023-04-03T07:32:27;4.00;83.60
792;DHT22;379;49.022;12.148;2023-04-03T07:34:54;4.00;82.30
792;DHT22;379;49.022;12.148;2023-04-03T07:37:21;4.10;82.20
792;DHT22;379;49.022;12.148;2023-04-03T07:39:47;4.10;82.80
792;DHT22;379;49.022;12.148;2023-04-03T07:42:14;4.20;81.40
792;DHT22;379;49.022;12.148;2023-04-03T07:44:41;4.20;80.80
792;DHT22;379;49.022;12.148;2023-04-03T07:47:08;4.30;80.90
792;DHT22;379;49.022;12.148;2023-04-03T07:49:36;4.40;80.30
792;DHT22;379;49.022;12.148;2023-04-03T07:52:05;4.50;79.40
792;DHT22;379;49.022;12.148;2023-04-03T07:54:32;4.60;79.00
792;DHT22;379;49.022;12.148;2023-04-03T07:57:00;4.70;77.70
792;DHT22;379;49.022;12.148;2023-04-03T07:59:27;4.90;77.40
792;DHT22;379;49.022;12.148;2023-04-03T08:01:54;5.10;76.10
792;DHT22;379;49.022;12.148;2023-04-03T08:04:20;5.10;73.90
792;DHT22;379;49.022;12.148;2023-04-03T08:06:49;5.20;73.40
792;DHT22;379;49.022;12.148;2023-04-03T08:09:16;5.20;72.30
792;DHT22;379;49.022;12.148;2023-04-03T08:11:43;5.30;71.30
792;DHT22;379;49.022;12.148;2023-04-03T08:14:10;5.30;70.90
792;DHT22;379;49.022;12.148;2023-04-03T08:16:42;5.40;70.70
792;DHT22;379;49.022;12.148;2023-04-03T08:19:09;5.40;68.80
792;DHT22;379;49.022;12.148;2023-04-03T08:21:36;5.40;68.60
792;DHT22;379;49.022;12.148;2023-04-03T08:24:04;5.30;68.30
792;DHT22;379;49.022;12.148;2023-04-03T08:26:31;5.30;66.50
792;DHT22;379;49.022;12.148;2023-04-03T08:28:58;5.40;67.60
792;DHT22;379;49.022;12.148;2023-04-03T08:31:24;5.60;67.50
792;DHT22;379;49.022;12.148;2023-04-03T08:33:51;5.70;66.60
792;DHT22;379;49.022;12.148;2023-04-03T08:36:20;5.70;65.90
792;DHT22;379;49.022;12.148;2023-04-03T08:38:47;5.70;64.20
792;DHT22;379;49.022;12.148;2023-04-03T08:41:20;5.80;63.90
792;DHT22;379;49.022;12.148;2023-04-03T08:44:04;5.80;63.40
792;DHT22;379;49.022;12.148;2023-04-03T08:46:43;5.80;62.80
792;DHT22;379;49.022;12.148;2023-04-03T08:49:22;5.80;61.30
792;DHT22;379;49.022;12.148;2023-04-03T08:51:52;5.80;60.60
792;DHT22;379;49.022;12.148;2023-04-03T08:54:25;6.00;58.90
792;DHT22;379;49.022;12.148;2023-04-03T08:56:55;6.10;57.90
792;DHT22;379;49.022;12.148;2023-04-03T08:59:28;6.20;58.70
792;DHT22;379;49.022;12.148;2023-04-03T09:01:58;6.40;58.70
792;DHT22;379;49.022;12.148;2023-04-03T09:04:26;6.60;58.00
792;DHT22;379;49.022;12.148;2023-04-03T09:06:57;6.60;56.40
792;DHT22;379;49.022;12.148;2023-04-03T09:09:31;6.80;55.30
792;DHT22;379;49.022;12.148;2023-04-03T09:12:06;7.00;54.20
792;DHT22;379;49.022;12.148;2023-04-03T09:14:43;7.00;52.20
792;DHT22;379;49.022;12.148;2023-04-03T09:17:15;7.00;50.60
792;DHT22;379;49.022;12.148;2023-04-03T09:19:51;7.20;51.90
792;DHT22;379;49.022;12.148;2023-04-03T09:22:22;7.20;54.00
792;DHT22;379;49.022;12.148;2023-04-03T09:24:57;6.90;54.60
792;DHT22;379;49.022;12.148;2023-04-03T09:27:27;6.70;54.30
792;DHT22;379;49.022;12.148;2023-04-03T09:29:55;6.60;54.60
792;DHT22;379;49.022;12.148;2023-04-03T09:32:27;6.70;55.10
792;DHT22;379;49.022;12.148;2023-04-03T09:34:57;6.90;54.40
792;DHT22;379;49.022;12.148;2023-04-03T09:37:37;7.10;53.70
792;DHT22;379;49.022;12.148;2023-04-03T09:40:05;7.20;50.50
792;DHT22;379;49.022;12.148;2023-04-03T09:42:40;7.10;51.60
792;DHT22;379;49.022;12.148;2023-04-03T09:45:21;7.20;49.40
792;DHT22;379;49.022;12.148;2023-04-03T09:47:49;7.20;49.00
792;DHT22;379;49.022;12.148;2023-04-03T09:50:30;7.30;48.30
792;DHT22;379;49.022;12.148;2023-04-03T09:52:57;7.50;49.80
792;DHT22;379;49.022;12.148;2023-04-03T09:55:25;7.50;48.80
792;DHT22;379;49.022;12.148;2023-04-03T09:57:58;7.30;48.30
792;DHT22;379;49.022;12.148;2023-04-03T10:00:28;6.90;49.00
792;DHT22;379;49.022;12.148;2023-04-03T10:02:57;6.60;50.40
792;DHT22;379;49.022;12.148;2023-04-03T10:05:31;6.20;50.80
792;DHT22;379;49.022;12.148;2023-04-03T10:08:20;5.80;51.30
792;DHT22;379;49.022;12.148;2023-04-03T10:11:12;5.60;51.80
792;DHT22;379;49.022;12.148;2023-04-03T10:13:57;5.50;51.90
792;DHT22;379;49.022;12.148;2023-04-03T10:16:28;5.60;51.30
792;DHT22;379;49.022;12.148;2023-04-03T10:19:31;5.80;51.30
792;DHT22;379;49.022;12.148;2023-04-03T10:22:03;6.00;50.80
792;DHT22;379;49.022;12.148;2023-04-03T10:24:36;6.30;50.20
792;DHT22;379;49.022;12.148;2023-04-03T10:27:10;6.40;48.60
792;DHT22;379;49.022;12.148;2023-04-03T10:29:45;6.30;47.70
792;DHT22;379;49.022;12.148;2023-04-03T10:32:44;6.20;48.00
792;DHT22;379;49.022;12.148;2023-04-03T10:35:18;6.30;47.10
792;DHT22;379;49.022;12.148;2023-04-03T10:37:55;6.50;47.60
792;DHT22;379;49.022;12.148;2023-04-03T10:40:30;6.50;48.40
792;DHT22;379;49.022;12.148;2023-04-03T10:43:04;6.30;48.00
792;DHT22;379;49.022;12.148;2023-04-03T10:45:48;6.30;47.30
792;DHT22;379;49.022;12.148;2023-04-03T10:48:22;6.20;48.10
792;DHT22;379;49.022;12.148;2023-04-03T10:50:58;6.10;46.90
792;DHT22;379;49.022;12.148;2023-04-03T10:53:32;6.30;46.40
792;DHT22;379;49.022;12.148;2023-04-03T10:56:07;6.60;45.20
792;DHT22;379;49.022;12.148;2023-04-03T10:58:40;6.70;44.80
792;DHT22;379;49.022;12.148;2023-04-03T11:01:13;6.60;44.90
792;DHT22;379;49.022;12.148;2023-04-03T11:03:43;6.60;44.80
792;DHT22;379;49.022;12.148;2023-04-03T11:06:13;6.70;45.80
792;DHT22;379;49.022;12.148;2023-04-03T11:08:44;6.70;47.10
792;DHT22;379;49.022;12.148;2023-04-03T11:11:15;6.50;46.70
792;DHT22;379;49.022;12.148;2023-04-03T11:13:48;6.50;44.60
792;DHT22;379;49.022;12.148;2023-04-03T11:16:20;6.80;44.80
792;DHT22;379;49.022;12.148;2023-04-03T11:18:52;7.00;44.30
792;DHT22;379;49.022;12.148;2023-04-03T11:21:24;7.40;44.50
792;DHT22;379;49.022;12.148;2023-04-03T11:23:56;7.60;43.40
792;DHT22;379;49.022;12.148;2023-04-03T11:26:27;7.80;44.40
792;DHT22;379;49.022;12.148;2023-04-03T11:28:59;7.90;43.50
792;DHT22;379;49.022;12.148;2023-04-03T11:31:37;7.60;43.50
792;DHT22;379;49.022;12.148;2023-04-03T11:34:18;7.20;43.80
792;DHT22;379;49.022;12.148;2023-04-03T11:36:49;6.80;44.30
792;DHT22;379;49.022;12.148;2023-04-03T11:39:22;6.60;44.20
792;DHT22;379;49.022;12.148;2023-04-03T11:41:50;6.60;44.50
792;DHT22;379;49.022;12.148;2023-04-03T11:44:30;6.70;45.20
792;DHT22;379;49.022;12.148;2023-04-03T11:47:01;6.80;45.10
792;DHT22;379;49.022;12.148;2023-04-03T11:49:54;6.90;44.30
792;DHT22;379;49.022;12.148;2023-04-03T11:52:57;6.90;44.90
792;DHT22;379;49.022;12.148;2023-04-03T11:55:55;6.70;44.00
792;DHT22;379;49.022;12.148;2023-04-03T11:58:23;6.40;44.40
792;DHT22;379;49.022;12.148;2023-04-03T12:01:06;6.30;45.30
792;DHT22;379;49.022;12.148;2023-04-03T12:04:05;6.20;46.00
792;DHT22;379;49.022;12.148;2023-04-03T12:06:49;6.10;46.20
792;DHT22;379;49.022;12.148;2023-04-03T12:09:24;5.90;45.90
792;DHT22;379;49.022;12.148;2023-04-03T12:11:52;5.90;46.70
792;DHT22;379;49.022;12.148;2023-04-03T12:14:22;6.00;46.20
792;DHT22;379;49.022;12.148;2023-04-03T12:16:49;6.10;45.30
792;DHT22;379;49.022;12.148;2023-04-03T12:19:36;6.10;44.80
792;DHT22;379;49.022;12.148;2023-04-03T12:22:16;6.10;44.50
792;DHT22;379;49.022;12.148;2023-04-03T12:24:47;6.10;45.60
792;DHT22;379;49.022;12.148;2023-04-03T12:27:24;6.20;46.20
792;DHT22;379;49.022;12.148;2023-04-03T12:29:55;6.20;46.60
792;DHT22;379;49.022;12.148;2023-04-03T12:35:31;6.10;45.90
792;DHT22;379;49.022;12.148;2023-04-03T12:38:20;6.30;46.00
792;DHT22;379;49.022;12.148;2023-04-03T12:40:55;6.30;44.40
792;DHT22;379;49.022;12.148;2023-04-03T12:43:33;6.40;44.40
792;DHT22;379;49.022;12.148;2023-04-03T12:46:04;6.40;44.90
792;DHT22;379;49.022;12.148;2023-04-03T12:48:39;6.50;45.90
792;DHT22;379;49.022;12.148;2023-04-03T12:51:16;6.50;46.10
792;DHT22;379;49.022;12.148;2023-04-03T12:53:45;6.60;45.40
792;DHT22;379;49.022;12.148;2023-04-03T12:56:22;6.60;44.50
792;DHT22;379;49.022;12.148;2023-04-03T12:58:50;6.80;45.10
792;DHT22;379;49.022;12.148;2023-04-03T13:01:20;7.10;44.60
792;DHT22;379;49.022;12.148;2023-04-03T13:03:50;7.30;45.40
792;DHT22;379;49.022;12.148;2023-04-03T13:06:21;7.30;44.60
792;DHT22;379;49.022;12.148;2023-04-03T13:08:50;7.10;43.60
792;DHT22;379;49.022;12.148;2023-04-03T13:11:18;6.70;43.80
792;DHT22;379;49.022;12.148;2023-04-03T13:13:57;6.60;44.20
792;DHT22;379;49.022;12.148;2023-04-03T13:16:25;6.80;45.10
792;DHT22;379;49.022;12.148;2023-04-03T13:18:53;6.80;45.00
792;DHT22;379;49.022;12.148;2023-04-03T13:21:23;6.80;45.20
792;DHT22;379;49.022;12.148;2023-04-03T13:23:54;6.80;43.80
792;DHT22;379;49.022;12.148;2023-04-03T13:26:27;6.60;43.90
792;DHT22;379;49.022;12.148;2023-04-03T13:28:56;6.50;43.40
792;DHT22;379;49.022;12.148;2023-04-03T13:31:26;6.50;44.60
792;DHT22;379;49.022;12.148;2023-04-03T13:33:56;6.80;43.80
792;DHT22;379;49.022;12.148;2023-04-03T13:36:27;7.20;44.00
792;DHT22;379;49.022;12.148;2023-04-03T13:39:02;7.40;43.40
792;DHT22;379;49.022;12.148;2023-04-03T13:41:31;7.40;43.30
792;DHT22;379;49.022;12.148;2023-04-03T13:44:16;7.10;42.50
792;DHT22;379;49.022;12.148;2023-04-03T13:46:44;6.70;42.70
792;DHT22;379;49.022;12.148;2023-04-03T13:49:21;6.60;43.40
792;DHT22;379;49.022;12.148;2023-04-03T13:51:49;6.90;43.90
792;DHT22;379;49.022;12.148;2023-04-03T13:54:21;7.30;44.80
792;DHT22;379;49.022;12.148;2023-04-03T13:56:54;7.50;45.10
792;DHT22;379;49.022;12.148;2023-04-03T13:59:24;7.60;43.80
792;DHT22;379;49.022;12.148;2023-04-03T14:01:53;7.40;43.40
792;DHT22;379;49.022;12.148;2023-04-03T14:04:22;7.10;43.60
792;DHT22;379;49.022;12.148;2023-04-03T14:06:50;6.80;43.20
792;DHT22;379;49.022;12.148;2023-04-03T14:09:19;6.60;43.00
792;DHT22;379;49.022;12.148;2023-04-03T14:11:48;6.60;43.70
792;DHT22;379;49.022;12.148;2023-04-03T14:14:18;6.70;43.90
792;DHT22;379;49.022;12.148;2023-04-03T14:16:48;6.80;44.50
792;DHT22;379;49.022;12.148;2023-04-03T14:19:20;6.70;44.10
792;DHT22;379;49.022;12.148;2023-04-03T14:21:47;6.70;44.00
792;DHT22;379;49.022;12.148;2023-04-03T14:24:15;6.60;44.50
792;DHT22;379;49.022;12.148;2023-04-03T14:26:42;6.80;45.10
792;DHT22;379;49.022;12.148;2023-04-03T14:29:12;6.80;44.20
792;DHT22;379;49.022;12.148;2023-04-03T14:31:40;6.80;44.00
792;DHT22;379;49.022;12.148;2023-04-03T14:34:07;6.70;44.30
792;DHT22;379;49.022;12.148;2023-04-03T14:36:34;6.60;44.10
792;DHT22;379;49.022;12.148;2023-04-03T14:39:01;6.70;43.80
792;DHT22;379;49.022;12.148;2023-04-03T14:41:29;6.80;44.30
792;DHT22;379;49.022;12.148;2023-04-03T14:43:56;6.90;44.30
792;DHT22;379;49.022;12.148;2023-04-03T14:46:26;6.90;43.80
792;DHT22;379;49.022;12.148;2023-04-03T14:48:54;6.60;43.50
792;DHT22;379;49.022;12.148;2023-04-03T14:51:21;6.30;43.60
792;DHT22;379;49.022;12.148;2023-04-03T14:53:48;6.00;44.80
792;DHT22;379;49.022;12.148;2023-04-03T14:56:18;5.80;44.90
792;DHT22;379;49.022;12.148;2023-04-03T14:58:48;5.60;45.30
792;DHT22;379;49.022;12.148;2023-04-03T15:01:16;5.60;45.20
792;DHT22;379;49.022;12.148;2023-04-03T15:03:43;5.50;45.10
792;DHT22;379;49.022;12.148;2023-04-03T15:06:11;5.60;46.10
792;DHT22;379;49.022;12.148;2023-04-03T15:08:39;5.70;46.40
792;DHT22;379;49.022;12.148;2023-04-03T15:11:08;5.90;46.00
792;DHT22;379;49.022;12.148;2023-04-03T15:13:35;6.20;45.90
792;DHT22;379;49.022;12.148;2023-04-03T15:16:04;6.40;45.40
792;DHT22;379;49.022;12.148;2023-04-03T15:18:35;6.40;44.80
792;DHT22;379;49.022;12.148;2023-04-03T15:21:02;6.20;45.20
792;DHT22;379;49.022;12.148;2023-04-03T15:23:29;5.90;45.10
792;DHT22;379;49.022;12.148;2023-04-03T15:25:56;5.70;45.60
792;DHT22;379;49.022;12.148;2023-04-03T15:28:27;5.50;45.80
792;DHT22;379;49.022;12.148;2023-04-03T15:30:55;5.50;46.00
792;DHT22;379;49.022;12.148;2023-04-03T15:33:23;5.60;46.10
792;DHT22;379;49.022;12.148;2023-04-03T15:35:50;5.80;46.30
792;DHT22;379;49.022;12.148;2023-04-03T15:38:17;5.80;44.50
792;DHT22;379;49.022;12.148;2023-04-03T15:40:44;5.70;44.30
792;DHT22;379;49.022;12.148;2023-04-03T15:43:12;5.60;45.20
792;DHT22;379;49.022;12.148;2023-04-03T15:45:40;5.40;45.00
792;DHT22;379;49.022;12.148;2023-04-03T15:48:06;5.50;46.10
792;DHT22;379;49.022;12.148;2023-04-03T15:50:35;5.80;46.00
792;DHT22;379;49.022;12.148;2023-04-03T15:53:02;5.90;46.10
792;DHT22;379;49.022;12.148;2023-04-03T15:55:30;6.00;45.90
792;DHT22;379;49.022;12.148;2023-04-03T15:57:58;5.90;45.20
792;DHT22;379;49.022;12.148;2023-04-03T16:00:25;5.80;45.70
792;DHT22;379;49.022;12.148;2023-04-03T16:02:55;5.70;46.00
792;DHT22;379;49.022;12.148;2023-04-03T16:05:24;5.50;46.10
792;DHT22;379;49.022;12.148;2023-04-03T16:07:52;5.50;46.60
792;DHT22;379;49.022;12.148;2023-04-03T16:10:20;5.50;47.30
792;DHT22;379;49.022;12.148;2023-04-03T16:12:47;5.70;48.10
792;DHT22;379;49.022;12.148;2023-04-03T16:15:14;5.80;47.50
792;DHT22;379;49.022;12.148;2023-04-03T16:17:41;5.60;46.90
792;DHT22;379;49.022;12.148;2023-04-03T16:20:10;5.40;46.80
792;DHT22;379;49.022;12.148;2023-04-03T16:22:37;5.10;46.50
792;DHT22;379;49.022;12.148;2023-04-03T16:25:07;4.90;46.00
792;DHT22;379;49.022;12.148;2023-04-03T16:27:34;4.70;46.10
792;DHT22;379;49.022;12.148;2023-04-03T16:30:01;4.50;47.00
792;DHT22;379;49.022;12.148;2023-04-03T16:32:30;4.40;47.70
792;DHT22;379;49.022;12.148;2023-04-03T16:34:58;4.30;48.40
792;DHT22;379;49.022;12.148;2023-04-03T16:37:24;4.30;48.60
792;DHT22;379;49.022;12.148;2023-04-03T16:39:51;4.20;49.20
792;DHT22;379;49.022;12.148;2023-04-03T16:42:19;4.20;48.90
792;DHT22;379;49.022;12.148;2023-04-03T16:44:46;4.10;48.70
792;DHT22;379;49.022;12.148;2023-04-03T16:47:13;4.10;48.70
792;DHT22;379;49.022;12.148;2023-04-03T16:49:43;4.00;49.20
792;DHT22;379;49.022;12.148;2023-04-03T16:52:09;4.00;49.70
792;DHT22;379;49.022;12.148;2023-04-03T16:54:36;3.90;50.40